createdAt,value
2022-09-20T00:01:28.433Z,94717.03
2022-09-20T00:03:57.954Z,94702.28
2022-09-20T00:06:32.075Z,94697.25
2022-09-20T00:09:01.432Z,94702.41
2022-09-20T00:11:31.489Z,94698.63
2022-09-20T00:14:00.575Z,94711.22
2022-09-20T00:16:30.454Z,94706.34
2022-09-20T00:18:59.282Z,94706.94
2022-09-20T00:21:29.034Z,94707.94
2022-09-20T00:23:57.672Z,94710.13
2022-09-20T00:26:26.382Z,94711.78
2022-09-20T00:28:53.854Z,94715.28
2022-09-20T00:31:21.007Z,94707.53
2022-09-20T00:34:06.514Z,94697.81
2022-09-20T00:36:33.542Z,94699.34
2022-09-20T00:39:02.268Z,94694.97
2022-09-20T00:41:31.962Z,94705.44
2022-09-20T00:44:00.489Z,94711.66
2022-09-20T00:46:44.849Z,94722.38
2022-09-20T00:49:19.446Z,94712.13
2022-09-20T00:51:51.687Z,94711.00
2022-09-20T00:54:22.516Z,94714.16
2022-09-20T00:56:49.804Z,94700.13
2022-09-20T00:59:39.478Z,94702.28
2022-09-20T01:02:14.097Z,94704.63
2022-09-20T01:04:42.983Z,94705.59
2022-09-20T01:07:13.911Z,94696.03
2022-09-20T01:09:41.018Z,94703.41
2022-09-20T01:12:13.836Z,94700.63
2022-09-20T01:14:43.735Z,94708.78
2022-09-20T01:17:12.512Z,94711.16
2022-09-20T01:20:24.540Z,94702.59
2022-09-20T01:23:27.832Z,94707.97
2022-09-20T01:26:30.181Z,94699.41
2022-09-20T01:29:50.220Z,94701.81
2022-09-20T01:32:22.837Z,94694.78
2022-09-20T01:34:56.751Z,94701.25
2022-09-20T01:37:32.325Z,94715.38
2022-09-20T01:40:39.920Z,94705.50
2022-09-20T01:43:53.525Z,94715.84
2022-09-20T01:46:34.191Z,94713.59
2022-09-20T01:49:35.342Z,94726.59
2022-09-20T01:52:57.901Z,94729.78
2022-09-20T01:56:09.573Z,94720.78
2022-09-20T01:59:24.186Z,94723.75
2022-09-20T02:02:33.824Z,94707.50
2022-09-20T02:05:48.572Z,94705.16
2022-09-20T02:09:08.243Z,94688.34
2022-09-20T02:28:16.177Z,94694.94
2022-09-20T02:31:23.142Z,94704.41
2022-09-20T02:34:34.205Z,94714.34
2022-09-20T02:37:36.350Z,94713.81
2022-09-20T02:40:41.810Z,94712.03
2022-09-20T02:43:23.521Z,94712.59
2022-09-20T02:46:38.264Z,94715.50
2022-09-20T02:50:06.888Z,94718.22
2022-09-20T02:53:01.421Z,94717.81
2022-09-20T02:55:56.394Z,94713.53
2022-09-20T02:58:42.901Z,94716.78
2022-09-20T03:01:46.585Z,94717.47
2022-09-20T03:04:25.777Z,94721.16
2022-09-20T03:07:31.383Z,94726.94
2022-09-20T03:10:40.976Z,94714.28
2022-09-20T03:13:43.045Z,94725.94
2022-09-20T03:16:52.682Z,94723.88
2022-09-20T03:20:14.241Z,94718.94
2022-09-20T03:23:05.389Z,94728.88
2022-09-20T03:26:14.894Z,94724.44
2022-09-20T03:29:05.772Z,94732.84
2022-09-20T04:27:47.254Z,94755.63
2022-09-20T04:30:25.167Z,94761.50
2022-09-20T04:33:01.204Z,94762.22
2022-09-20T04:36:30.166Z,94757.19
2022-09-20T04:39:34.430Z,94765.19
2022-09-20T04:42:46.756Z,94775.81
2022-09-20T04:45:30.747Z,94765.00
2022-09-20T04:48:46.645Z,94768.91
2022-09-20T04:52:05.941Z,94770.19
2022-09-20T04:55:14.755Z,94772.16
2022-09-20T04:58:33.979Z,94772.41
2022-09-20T05:41:06.532Z,94781.91
2022-09-20T05:44:01.489Z,94784.00
2022-09-20T05:46:54.270Z,94787.91
2022-09-20T05:50:32.841Z,94783.69
2022-09-20T05:53:25.154Z,94785.34
2022-09-20T05:56:18.106Z,94793.97
2022-09-20T05:59:21.691Z,94793.19
2022-09-20T06:02:43.795Z,94792.78
2022-09-20T06:05:48.270Z,94789.69
2022-09-20T06:09:01.053Z,94790.56
2022-09-20T06:12:01.080Z,94790.38
2022-09-20T06:14:54.367Z,94793.88
2022-09-20T06:17:49.790Z,94792.91
2022-09-20T06:20:56.541Z,94783.28
2022-09-20T06:23:23.724Z,94788.66
2022-09-20T06:25:57.499Z,94782.94
2022-09-20T06:28:39.454Z,94791.00
2022-09-20T06:31:10.459Z,94781.84
2022-09-20T06:33:45.203Z,94783.44
2022-09-20T06:36:45.557Z,94790.91
2022-09-20T06:40:13.071Z,94785.25
2022-09-20T06:42:40.108Z,94777.28
2022-09-20T06:45:07.584Z,94783.16
2022-09-20T06:47:38.528Z,94786.06
2022-09-20T06:50:06.517Z,94785.75
2022-09-20T06:52:34.797Z,94784.34
2022-09-20T06:55:09.076Z,94794.09
2022-09-20T06:57:40.273Z,94788.63
2022-09-20T07:00:11.424Z,94795.81
2022-09-20T07:02:38.783Z,94797.28
2022-09-20T07:05:07.816Z,94803.78
2022-09-20T07:07:34.844Z,94803.56
2022-09-20T07:10:02.039Z,94799.31
2022-09-20T07:12:33.773Z,94798.56
2022-09-20T07:15:00.772Z,94803.91
2022-09-20T07:17:27.751Z,94802.50
2022-09-20T07:19:56.794Z,94800.88
2022-09-20T07:22:24.014Z,94806.84
2022-09-20T07:24:51.402Z,94804.47
2022-09-20T07:27:18.449Z,94807.66
2022-09-20T07:29:46.386Z,94808.28
2022-09-20T07:32:13.534Z,94800.22
2022-09-20T07:34:40.749Z,94799.81
2022-09-20T07:37:08.145Z,94809.00
2022-09-20T07:39:35.243Z,94792.56
2022-09-20T07:42:06.425Z,94796.50
2022-09-20T07:44:33.290Z,94799.13
2022-09-20T07:47:00.970Z,94797.16
2022-09-20T07:49:32.208Z,94791.13
2022-09-20T07:51:59.394Z,94783.78
2022-09-20T07:54:27.825Z,94785.44
2022-09-20T07:56:54.869Z,94784.84
2022-09-20T07:59:22.147Z,94791.31
2022-09-20T08:01:49.299Z,94788.31
2022-09-20T08:04:16.287Z,94777.97
2022-09-20T08:06:45.023Z,94781.66
2022-09-20T08:09:13.670Z,94786.50
2022-09-20T08:11:43.062Z,94778.00
2022-09-20T08:14:14.779Z,94793.50
2022-09-20T08:16:48.043Z,94787.34
2022-09-20T08:19:23.545Z,94784.75
2022-09-20T08:21:52.881Z,94791.13
2022-09-20T08:24:20.235Z,94792.25
2022-09-20T08:26:48.525Z,94791.59
2022-09-20T08:29:16.029Z,94791.31
2022-09-20T08:31:43.303Z,94780.00
2022-09-20T08:34:12.857Z,94784.47
2022-09-20T08:36:42.662Z,94789.00
2022-09-20T08:42:23.055Z,94771.19
2022-09-20T08:44:58.930Z,94771.06
2022-09-20T08:47:29.990Z,94776.25
2022-09-20T08:49:59.369Z,94773.78
2022-09-20T08:52:37.110Z,94770.47
2022-09-20T08:55:20.090Z,94767.34
2022-09-20T08:57:56.373Z,94758.56
2022-09-20T09:00:26.488Z,94768.03
2022-09-20T09:02:59.611Z,94751.59
2022-09-20T09:05:53.476Z,94757.97
2022-09-20T09:08:31.127Z,94754.78
2022-09-20T09:12:00.391Z,94742.94
2022-09-20T09:14:48.943Z,94742.31
2022-09-20T09:17:18.132Z,94746.81
2022-09-20T09:19:53.980Z,94743.16
2022-09-20T09:22:25.103Z,94741.03
2022-09-20T09:25:22.367Z,94734.09
2022-09-20T09:28:13.803Z,94728.25
2022-09-20T09:30:47.179Z,94732.88
2022-09-20T09:33:28.933Z,94730.34
2022-09-20T09:36:15.257Z,94724.75
2022-09-20T09:38:47.783Z,94718.78
2022-09-20T09:41:33.416Z,94712.22
2022-09-20T09:44:11.158Z,94722.19
2022-09-20T09:46:40.324Z,94708.03
2022-09-20T09:49:16.955Z,94708.88
2022-09-20T09:52:07.320Z,94715.41
2022-09-20T09:54:47.886Z,94720.31
2022-09-20T09:57:48.880Z,94717.34
2022-09-20T10:00:22.618Z,94717.56
2022-09-20T10:03:23.594Z,94728.66
2022-09-20T10:06:43.886Z,94720.66
2022-09-20T10:09:53.830Z,94721.66
2022-09-20T10:12:46.374Z,94709.84
2022-09-20T10:15:24.333Z,94710.03
2022-09-20T10:18:42.520Z,94703.94
2022-09-20T10:21:49.059Z,94716.47
2022-09-20T10:24:51.345Z,94709.31
2022-09-20T10:27:48.802Z,94709.31
2022-09-20T10:30:21.142Z,94701.38
2022-09-20T10:33:25.997Z,94718.09
2022-09-20T10:36:25.047Z,94715.16
2022-09-20T10:39:17.834Z,94703.53
2022-09-20T10:48:49.150Z,94704.53
2022-09-20T10:51:40.817Z,94711.44
2022-09-20T10:54:49.202Z,94712.69
2022-09-20T10:58:01.614Z,94715.31
2022-09-20T11:01:00.980Z,94707.22
2022-09-20T11:04:32.567Z,94709.59
2022-09-20T11:07:32.644Z,94704.56
2022-09-20T11:10:05.669Z,94702.94
2022-09-20T11:12:51.583Z,94697.59
2022-09-20T11:15:43.593Z,94703.34
2022-09-20T11:18:23.288Z,94691.56
2022-09-20T11:21:00.744Z,94708.69
2022-09-20T11:23:55.367Z,94687.25
2022-09-20T11:26:43.140Z,94694.34
2022-09-20T11:29:26.475Z,94690.69
2022-09-20T11:32:00.526Z,94681.38
2022-09-20T11:34:32.299Z,94695.97
2022-09-20T11:37:03.315Z,94690.00
2022-09-20T11:39:56.407Z,94679.81
2022-09-20T11:42:30.233Z,94686.41
2022-09-20T11:44:57.672Z,94674.44
2022-09-20T11:47:53.328Z,94662.06
2022-09-20T11:51:16.057Z,94668.44
2022-09-20T11:54:28.354Z,94659.19
2022-09-20T11:56:57.636Z,94664.88
2022-09-20T11:59:37.506Z,94661.44
2022-09-20T12:02:18.583Z,94653.31
2022-09-20T12:04:46.467Z,94654.41
2022-09-20T12:07:19.493Z,94664.72
2022-09-20T12:09:54.795Z,94655.72
2022-09-20T12:12:49.361Z,94656.34
2022-09-20T12:15:42.540Z,94658.38
2022-09-20T12:18:28.500Z,94654.84
2022-09-20T12:21:01.460Z,94655.00
2022-09-20T12:24:04.790Z,94665.00
2022-09-20T12:26:41.096Z,94649.56
2022-09-20T12:30:06.618Z,94667.28
2022-09-20T12:33:01.263Z,94660.22
2022-09-20T12:36:12.985Z,94659.56
2022-09-20T12:38:48.303Z,94660.03
2022-09-20T12:41:27.948Z,94651.59
2022-09-20T12:43:59.717Z,94654.91
2022-09-20T12:46:36.292Z,94651.94
2022-09-20T12:50:24.410Z,94648.00
2022-09-20T12:52:58.310Z,94639.94
2022-09-20T12:55:55.139Z,94642.38
2022-09-20T12:58:55.494Z,94649.41
2022-09-20T13:01:35.120Z,94649.75
2022-09-20T13:04:40.814Z,94629.34
2022-09-20T13:07:35.029Z,94638.34
2022-09-20T13:10:06.778Z,94634.03
2022-09-20T13:12:50.395Z,94631.25
2022-09-20T13:15:21.996Z,94641.84
2022-09-20T13:17:52.991Z,94640.34
2022-09-20T13:20:22.666Z,94632.19
2022-09-20T13:22:50.255Z,94640.44
2022-09-20T13:25:21.517Z,94637.91
2022-09-20T13:28:09.419Z,94622.63
2022-09-20T13:30:36.831Z,94625.50
2022-09-20T13:33:25.710Z,94622.66
2022-09-20T13:35:58.787Z,94621.59
2022-09-20T13:38:32.020Z,94631.72
2022-09-20T13:41:09.287Z,94627.06
2022-09-20T13:43:44.675Z,94639.00
2022-09-20T13:46:29.173Z,94638.63
2022-09-20T13:49:23.895Z,94630.72
2022-09-20T13:51:51.396Z,94617.66
2022-09-20T13:54:32.930Z,94622.63
2022-09-20T13:57:06.861Z,94629.28
2022-09-20T13:59:40.757Z,94626.16
2022-09-20T14:02:22.661Z,94617.31
2022-09-20T14:04:54.714Z,94615.53
2022-09-20T14:07:25.949Z,94616.00
2022-09-20T14:09:54.287Z,94605.78
2022-09-20T14:12:24.186Z,94613.34
2022-09-20T14:14:51.838Z,94613.28
2022-09-20T14:17:21.979Z,94612.19
2022-09-20T14:19:52.061Z,94616.31
2022-09-20T14:22:23.358Z,94616.69
2022-09-20T14:25:18.796Z,94614.28
2022-09-20T14:27:45.862Z,94615.84
2022-09-20T14:30:39.048Z,94624.56
2022-09-20T14:33:12.784Z,94612.56
2022-09-20T14:35:48.107Z,94615.94
2022-09-20T14:38:16.467Z,94625.03
2022-09-20T14:40:48.254Z,94621.19
2022-09-20T14:43:45.860Z,94622.81
2022-09-20T14:46:18.753Z,94626.25
2022-09-20T14:48:45.743Z,94618.47
2022-09-20T14:51:30.832Z,94625.63
2022-09-20T14:54:25.666Z,94632.34
2022-09-20T14:56:57.746Z,94621.19
2022-09-20T14:59:27.115Z,94622.50
2022-09-20T15:01:57.952Z,94636.56
2022-09-20T15:04:27.986Z,94628.41
2022-09-20T15:06:57.183Z,94631.47
2022-09-20T15:09:24.406Z,94627.16
2022-09-20T15:12:02.254Z,94624.88
2022-09-20T15:14:31.797Z,94620.81
2022-09-20T15:17:00.939Z,94623.28
2022-09-20T15:19:28.184Z,94625.47
2022-09-20T15:21:55.107Z,94615.19
2022-09-20T15:24:22.014Z,94621.63
2022-09-20T15:26:49.310Z,94613.91
2022-09-20T15:29:20.076Z,94617.06
2022-09-20T15:31:48.027Z,94620.19
2022-09-20T15:34:16.314Z,94626.06
2022-09-20T15:36:43.538Z,94626.34
2022-09-20T15:39:11.356Z,94634.53
2022-09-20T15:41:38.433Z,94628.81
2022-09-20T15:44:05.604Z,94622.53
2022-09-20T15:46:32.983Z,94631.19
2022-09-20T15:49:02.726Z,94635.13
2022-09-20T15:51:30.693Z,94634.34
2022-09-20T15:54:06.476Z,94635.13
2022-09-20T15:56:36.146Z,94636.72
2022-09-20T15:59:05.947Z,94642.97
2022-09-20T16:01:43.387Z,94644.09
2022-09-20T16:04:15.135Z,94642.84
2022-09-20T16:06:43.725Z,94631.00
2022-09-20T16:09:11.214Z,94646.38
2022-09-20T16:11:39.175Z,94648.56
2022-09-20T16:14:06.641Z,94649.53
2022-09-20T16:16:39.652Z,94648.88
2022-09-20T16:19:20.294Z,94655.88
2022-09-20T16:21:53.742Z,94644.56
2022-09-20T16:24:32.102Z,94650.50
2022-09-20T16:27:01.315Z,94652.09
2022-09-20T16:29:30.160Z,94660.06
2022-09-20T16:31:58.683Z,94658.19
2022-09-20T16:34:31.462Z,94668.59
2022-09-20T16:37:08.070Z,94663.84
2022-09-20T16:39:35.014Z,94660.19
2022-09-20T16:42:05.134Z,94663.75
2022-09-20T16:44:33.429Z,94671.69
2022-09-20T16:47:00.786Z,94669.34
2022-09-20T16:49:28.955Z,94668.34
2022-09-20T16:51:56.393Z,94669.88
2022-09-20T16:54:23.504Z,94669.38
2022-09-20T16:56:51.144Z,94675.81
2022-09-20T16:59:21.556Z,94669.06
2022-09-20T17:01:49.649Z,94680.31
2022-09-20T17:04:18.581Z,94679.25
2022-09-20T17:06:46.139Z,94678.78
2022-09-20T17:09:14.458Z,94677.56
2022-09-20T17:11:47.318Z,94679.81
2022-09-20T17:14:17.083Z,94680.03
2022-09-20T17:16:47.681Z,94681.06
2022-09-20T17:19:16.685Z,94689.41
2022-09-20T17:21:50.227Z,94681.44
2022-09-20T17:24:19.841Z,94695.50
2022-09-20T17:26:46.943Z,94684.97
2022-09-20T17:29:17.081Z,94692.63
2022-09-20T17:31:55.237Z,94694.34
2022-09-20T17:34:23.670Z,94693.94
2022-09-20T17:36:50.974Z,94698.41
2022-09-20T17:39:18.738Z,94705.72
2022-09-20T17:41:47.711Z,94705.25
2022-09-20T17:44:15.505Z,94700.16
2022-09-20T17:46:44.926Z,94705.25
2022-09-20T17:49:16.812Z,94701.41
2022-09-20T17:51:54.760Z,94704.44
2022-09-20T17:54:23.497Z,94704.88
2022-09-20T17:56:52.618Z,94711.53
2022-09-20T17:59:20.434Z,94706.13
2022-09-20T18:01:50.073Z,94711.66
2022-09-20T18:04:17.790Z,94705.13
2022-09-20T18:06:49.963Z,94715.63
2022-09-20T18:09:19.810Z,94711.31
2022-09-20T18:11:51.879Z,94712.84
2022-09-20T18:14:23.771Z,94710.25
2022-09-20T18:16:56.096Z,94707.34
2022-09-20T18:19:23.195Z,94707.78
2022-09-20T18:21:50.750Z,94708.41
2022-09-20T18:24:17.694Z,94720.44
2022-09-20T18:26:44.710Z,94724.25
2022-09-20T18:29:18.068Z,94716.16
2022-09-20T18:31:50.868Z,94720.28
2022-09-20T18:34:22.960Z,94721.19
2022-09-20T18:36:55.203Z,94720.22
2022-09-20T18:39:27.201Z,94728.75
2022-09-20T18:41:54.658Z,94724.88
2022-09-20T18:44:22.522Z,94724.41
2022-09-20T18:46:54.297Z,94720.59
2022-09-20T18:49:21.827Z,94723.59
2022-09-20T18:51:48.929Z,94722.50
2022-09-20T18:54:16.601Z,94727.28
2022-09-20T18:56:45.226Z,94723.78
2022-09-20T18:59:20.741Z,94720.91
2022-09-20T19:02:04.073Z,94718.66
2022-09-20T19:05:20.551Z,94717.19
2022-09-20T19:08:34.317Z,94716.72
2022-09-20T19:11:08.005Z,94713.22
2022-09-20T19:13:48.507Z,94712.91
2022-09-20T19:16:30.892Z,94721.47
2022-09-20T19:19:36.757Z,94726.13
2022-09-20T19:22:21.563Z,94728.34
2022-09-20T19:25:24.151Z,94729.13
2022-09-20T19:27:52.556Z,94736.72
2022-09-20T19:30:20.307Z,94727.38
2022-09-20T19:32:48.173Z,94727.50
2022-09-20T19:35:20.503Z,94732.47
2022-09-20T19:38:23.146Z,94728.75
2022-09-20T19:41:21.673Z,94731.59
2022-09-20T19:44:39.422Z,94734.38
2022-09-20T19:47:55.810Z,94741.19
2022-09-20T19:51:00.190Z,94732.97
2022-09-20T19:53:28.225Z,94730.00
2022-09-20T19:55:59.726Z,94738.59
2022-09-20T19:58:27.244Z,94747.94
2022-09-20T20:00:54.428Z,94736.75
2022-09-20T20:03:23.917Z,94745.00
2022-09-20T20:06:28.999Z,94750.72
2022-09-20T20:09:10.802Z,94745.44
2022-09-20T20:12:33.577Z,94752.06
2022-09-20T20:15:20.024Z,94760.53
2022-09-20T20:18:16.680Z,94757.50
2022-09-20T20:20:50.091Z,94757.22
2022-09-20T20:23:43.634Z,94751.63
2022-09-20T20:26:21.936Z,94754.63
2022-09-20T20:28:51.897Z,94758.72
2022-09-20T20:31:19.817Z,94757.53
2022-09-20T20:33:46.827Z,94759.84
2022-09-20T20:36:13.841Z,94765.22
2022-09-20T20:38:42.019Z,94762.00
2022-09-20T20:41:11.475Z,94756.72
2022-09-20T20:43:41.011Z,94763.81
2022-09-20T20:46:14.399Z,94761.72
2022-09-20T20:48:42.141Z,94759.03
2022-09-20T20:51:14.069Z,94761.22
2022-09-20T20:53:47.207Z,94760.72
2022-09-20T20:56:19.121Z,94754.84
2022-09-20T20:58:47.557Z,94760.00
2022-09-20T21:01:31.594Z,94764.78
2022-09-20T21:03:59.521Z,94765.75
2022-09-20T21:06:28.865Z,94768.84
2022-09-20T21:08:56.218Z,94768.94
2022-09-20T21:11:25.090Z,94774.94
2022-09-20T21:13:53.399Z,94773.34
2022-09-20T21:16:23.291Z,94777.03
2022-09-20T21:18:51.533Z,94766.56
2022-09-20T21:21:30.336Z,94771.94
2022-09-20T21:23:59.176Z,94771.75
2022-09-20T21:26:27.889Z,94772.28
2022-09-20T21:28:59.220Z,94777.16
2022-09-20T21:31:27.728Z,94777.25
2022-09-20T21:33:55.189Z,94775.16
2022-09-20T21:36:24.525Z,94771.97
2022-09-20T21:38:51.407Z,94772.84
2022-09-20T21:41:32.290Z,94774.06
2022-09-20T21:44:02.665Z,94772.25
2022-09-20T21:46:40.820Z,94775.75
2022-09-20T21:49:09.612Z,94771.38
2022-09-20T21:51:37.595Z,94771.06
2022-09-20T21:54:05.735Z,94770.28
2022-09-20T21:56:35.244Z,94767.09
2022-09-20T21:59:03.993Z,94761.28
2022-09-20T22:01:36.342Z,94766.16
2022-09-20T22:04:08.962Z,94754.53
2022-09-20T22:06:38.826Z,94764.91
2022-09-20T22:09:08.609Z,94757.72
2022-09-20T22:11:39.431Z,94760.41
2022-09-20T22:14:07.350Z,94765.75
2022-09-20T22:16:38.102Z,94762.47
2022-09-20T22:19:07.169Z,94755.81
2022-09-20T22:21:41.654Z,94759.41
2022-09-20T22:24:10.682Z,94758.41
2022-09-20T22:26:40.498Z,94761.72
2022-09-20T22:29:07.808Z,94755.56
2022-09-20T22:31:37.191Z,94750.84
2022-09-20T22:34:06.367Z,94751.16
2022-09-20T22:36:39.037Z,94750.66
2022-09-20T22:39:08.180Z,94757.69
2022-09-20T22:41:36.353Z,94760.97
2022-09-20T22:44:04.884Z,94764.03
2022-09-20T22:46:32.881Z,94756.53
2022-09-20T22:48:59.904Z,94767.28
2022-09-20T22:51:29.680Z,94769.19
2022-09-20T22:53:56.645Z,94766.78
2022-09-20T22:56:25.982Z,94765.69
2022-09-20T22:58:57.608Z,94766.22
2022-09-20T23:01:27.111Z,94758.44
2022-09-20T23:04:04.635Z,94765.69
2022-09-20T23:06:49.392Z,94769.34
2022-09-20T23:09:18.245Z,94757.72
2022-09-20T23:11:46.096Z,94758.66
2022-09-20T23:14:15.318Z,94762.13
2022-09-20T23:16:42.810Z,94760.97
2022-09-20T23:19:12.641Z,94768.91
2022-09-20T23:21:40.986Z,94758.53
2022-09-20T23:24:10.262Z,94749.16
2022-09-20T23:26:39.066Z,94762.28
2022-09-20T23:29:12.137Z,94757.44
2022-09-20T23:31:40.879Z,94747.97
2022-09-20T23:34:08.969Z,94747.41
2022-09-20T23:36:38.477Z,94752.78
2022-09-20T23:39:07.180Z,94754.38
2022-09-20T23:41:34.702Z,94748.22
2022-09-20T23:44:01.956Z,94757.94
2022-09-20T23:46:28.888Z,94758.22
2022-09-20T23:48:55.869Z,94753.16
2022-09-20T23:51:25.152Z,94752.94
2022-09-20T23:53:53.476Z,94751.34
2022-09-20T23:56:21.634Z,94754.31
2022-09-20T23:58:48.931Z,94752.13
